createdAt,value
2023-07-01T00:00:48.461Z,16.84
2023-07-01T00:01:48.336Z,16.83
2023-07-01T00:02:48.138Z,16.81
2023-07-01T00:03:48.114Z,16.79
2023-07-01T00:04:48.139Z,16.77
2023-07-01T00:05:48.078Z,16.77
2023-07-01T00:06:48.064Z,16.77
2023-07-01T00:07:48.048Z,16.75
2023-07-01T00:08:48.061Z,16.74
2023-07-01T00:09:48.029Z,16.74
2023-07-01T00:10:48.353Z,16.75
2023-07-01T00:11:48.023Z,16.76
2023-07-01T00:12:47.999Z,16.77
2023-07-01T00:13:47.990Z,16.78
2023-07-01T00:14:47.975Z,16.78
2023-07-01T00:15:47.960Z,16.77
2023-07-01T00:16:48.059Z,16.77
2023-07-01T00:17:47.950Z,16.77
2023-07-01T00:18:47.993Z,16.78
2023-07-01T00:19:47.931Z,16.80
2023-07-01T00:20:48.219Z,16.81
2023-07-01T00:21:47.961Z,16.81
2023-07-01T00:22:47.885Z,16.80
2023-07-01T00:23:47.887Z,16.79
2023-07-01T00:24:47.883Z,16.78
2023-07-01T00:25:47.875Z,16.78
2023-07-01T00:26:47.858Z,16.78
2023-07-01T00:27:47.826Z,16.78
2023-07-01T00:28:47.828Z,16.79
2023-07-01T00:29:47.812Z,16.80
2023-07-01T00:30:48.147Z,16.81
2023-07-01T00:31:47.945Z,16.82
2023-07-01T00:32:47.852Z,16.83
2023-07-01T00:33:47.784Z,16.83
2023-07-01T00:34:47.777Z,16.80
2023-07-01T00:35:47.746Z,16.78
2023-07-01T00:36:47.731Z,16.77
2023-07-01T00:37:47.777Z,16.77
2023-07-01T00:38:47.716Z,16.78
2023-07-01T00:39:47.736Z,16.80
2023-07-01T00:40:48.084Z,16.80
2023-07-01T00:41:47.682Z,16.80
2023-07-01T00:42:47.685Z,16.78
2023-07-01T00:43:47.805Z,16.78
2023-07-01T00:44:47.654Z,16.79
2023-07-01T00:45:47.718Z,16.81
2023-07-01T00:46:47.629Z,16.80
2023-07-01T00:47:47.693Z,16.79
2023-07-01T00:48:47.608Z,16.78
2023-07-01T00:49:47.609Z,16.76
2023-07-01T00:50:47.824Z,16.75
2023-07-01T00:51:47.573Z,16.75
2023-07-01T00:52:47.567Z,16.76
2023-07-01T00:53:47.576Z,16.77
2023-07-01T00:54:47.574Z,16.76
2023-07-01T00:55:47.546Z,16.75
2023-07-01T00:56:47.594Z,16.74
2023-07-01T00:57:47.547Z,16.73
2023-07-01T00:58:47.496Z,16.73
2023-07-01T00:59:47.486Z,16.74
2023-07-01T01:00:47.697Z,16.75
2023-07-01T01:01:47.529Z,16.77
2023-07-01T01:02:47.560Z,16.78
2023-07-01T01:03:47.530Z,16.77
2023-07-01T01:04:47.574Z,16.77
2023-07-01T01:05:47.422Z,16.77
2023-07-01T01:06:47.475Z,16.76
2023-07-01T01:07:47.433Z,16.76
2023-07-01T01:08:47.416Z,16.75
2023-07-01T01:09:47.388Z,16.74
2023-07-01T01:10:47.725Z,16.72
2023-07-01T01:11:47.457Z,16.71
2023-07-01T01:12:47.352Z,16.71
2023-07-01T01:13:47.352Z,16.70
2023-07-01T01:14:47.335Z,16.70
2023-07-01T01:15:47.351Z,16.70
2023-07-01T01:16:47.394Z,16.71
2023-07-01T01:17:47.323Z,16.71
2023-07-01T01:18:47.317Z,16.70
2023-07-01T01:19:47.315Z,16.70
2023-07-01T01:20:47.629Z,16.69
2023-07-01T01:21:47.280Z,16.70
2023-07-01T01:22:55.361Z,16.69
2023-07-01T01:23:47.283Z,16.68
2023-07-01T01:24:47.259Z,16.68
2023-07-01T01:25:47.223Z,16.69
2023-07-01T01:26:47.204Z,16.69
2023-07-01T01:27:47.206Z,16.70
2023-07-01T01:28:47.234Z,16.69
2023-07-01T01:29:47.198Z,16.68
2023-07-01T01:30:47.414Z,16.67
2023-07-01T01:31:47.189Z,16.66
2023-07-01T01:32:47.244Z,16.65
2023-07-01T01:33:47.149Z,16.64
2023-07-01T01:34:47.154Z,16.62
2023-07-01T01:35:47.112Z,16.62
2023-07-01T01:36:47.109Z,16.62
2023-07-01T01:37:47.110Z,16.61
2023-07-01T01:38:47.088Z,16.61
2023-07-01T01:39:47.077Z,16.61
2023-07-01T01:40:47.394Z,16.60
2023-07-01T01:41:47.053Z,16.60
2023-07-01T01:42:47.072Z,16.61
2023-07-01T01:43:47.033Z,16.61
2023-07-01T01:44:47.028Z,16.61
2023-07-01T01:45:47.010Z,16.62
2023-07-01T01:46:47.022Z,16.62
2023-07-01T01:47:47.038Z,16.62
2023-07-01T01:48:46.981Z,16.62
2023-07-01T01:49:46.975Z,16.62
2023-07-01T01:50:47.171Z,16.61
2023-07-01T01:51:46.958Z,16.62
2023-07-01T01:52:46.946Z,16.61
2023-07-01T01:53:47.004Z,16.61
2023-07-01T01:54:46.914Z,16.62
2023-07-01T01:55:46.925Z,16.64
2023-07-01T01:56:46.898Z,16.64
2023-07-01T01:57:46.990Z,16.63
2023-07-01T01:58:46.871Z,16.61
2023-07-01T01:59:46.889Z,16.60
2023-07-01T02:00:47.061Z,16.60
2023-07-01T02:01:46.856Z,16.60
2023-07-01T02:02:46.927Z,16.59
2023-07-01T02:03:46.979Z,16.59
2023-07-01T02:04:47.097Z,16.59
2023-07-01T02:05:46.892Z,16.58
2023-07-01T02:06:46.840Z,16.57
2023-07-01T02:07:46.882Z,16.58
2023-07-01T02:08:46.773Z,16.59
2023-07-01T02:09:46.765Z,16.60
2023-07-01T02:10:47.005Z,16.60
2023-07-01T02:11:46.756Z,16.61
2023-07-01T02:12:46.731Z,16.61
2023-07-01T02:13:46.760Z,16.60
2023-07-01T02:14:46.706Z,16.59
2023-07-01T02:15:46.706Z,16.58
2023-07-01T02:16:46.765Z,16.57
2023-07-01T02:17:46.709Z,16.55
2023-07-01T02:18:46.660Z,16.54
2023-07-01T02:19:46.665Z,16.54
2023-07-01T02:20:47.112Z,16.53
2023-07-01T02:21:46.624Z,16.54
2023-07-01T02:22:46.650Z,16.54
2023-07-01T02:23:46.626Z,16.54
2023-07-01T02:24:46.603Z,16.53
2023-07-01T02:25:46.599Z,16.52
2023-07-01T02:26:46.570Z,16.51
2023-07-01T02:27:46.570Z,16.50
2023-07-01T02:28:46.599Z,16.51
2023-07-01T02:29:46.548Z,16.50
2023-07-01T02:30:46.780Z,16.50
2023-07-01T02:31:46.529Z,16.49
2023-07-01T02:32:46.596Z,16.50
2023-07-01T02:33:46.533Z,16.50
2023-07-01T02:34:46.515Z,16.49
2023-07-01T02:35:46.490Z,16.48
2023-07-01T02:36:46.467Z,16.48
2023-07-01T02:37:46.476Z,16.47
2023-07-01T02:38:46.479Z,16.47
2023-07-01T02:39:46.460Z,16.47
2023-07-01T02:40:46.696Z,16.47
2023-07-01T02:41:46.462Z,16.46
2023-07-01T02:42:46.446Z,16.45
2023-07-01T02:43:46.393Z,16.44
2023-07-01T02:44:46.390Z,16.45
2023-07-01T02:45:46.398Z,16.46
2023-07-01T02:46:46.426Z,16.46
2023-07-01T02:47:46.399Z,16.47
2023-07-01T02:48:46.371Z,16.47
2023-07-01T02:49:48.429Z,16.48
2023-07-01T02:50:46.510Z,16.49
2023-07-01T02:51:46.320Z,16.50
2023-07-01T02:52:46.308Z,16.50
2023-07-01T02:53:46.315Z,16.51
2023-07-01T02:54:46.309Z,16.52
2023-07-01T02:55:46.276Z,16.53
2023-07-01T02:56:46.262Z,16.54
2023-07-01T02:57:46.261Z,16.53
2023-07-01T02:58:46.242Z,16.53
2023-07-01T02:59:46.233Z,16.53
2023-07-01T03:00:46.705Z,16.54
2023-07-01T03:01:48.207Z,16.54
2023-07-01T03:02:46.275Z,16.53
2023-07-01T03:03:46.323Z,16.54
2023-07-01T03:04:46.225Z,16.54
2023-07-01T03:05:46.173Z,16.55
2023-07-01T03:06:46.158Z,16.55
2023-07-01T03:07:46.160Z,16.55
2023-07-01T03:08:46.161Z,16.56
2023-07-01T03:09:46.139Z,16.57
2023-07-01T03:10:46.357Z,16.58
2023-07-01T03:11:46.123Z,16.59
2023-07-01T03:12:46.093Z,16.60
2023-07-01T03:13:46.088Z,16.61
2023-07-01T03:14:46.080Z,16.61
2023-07-01T03:15:46.093Z,16.60
2023-07-01T03:16:46.167Z,16.59
2023-07-01T03:17:46.136Z,16.58
2023-07-01T03:18:46.047Z,16.57
2023-07-01T03:19:46.032Z,16.58
2023-07-01T03:20:46.283Z,16.59
2023-07-01T03:21:45.996Z,16.59
2023-07-01T03:22:46.015Z,16.60
2023-07-01T03:23:45.976Z,16.61
2023-07-01T03:24:45.967Z,16.62
2023-07-01T03:25:45.958Z,16.62
2023-07-01T03:26:45.943Z,16.63
2023-07-01T03:27:45.964Z,16.64
2023-07-01T03:28:45.926Z,16.65
2023-07-01T03:29:45.915Z,16.65
2023-07-01T03:30:46.150Z,16.66
2023-07-01T03:31:45.927Z,16.67
2023-07-01T03:32:45.986Z,16.68
2023-07-01T03:33:45.875Z,16.68
2023-07-01T03:34:45.871Z,16.69
2023-07-01T03:35:45.874Z,16.70
2023-07-01T03:36:45.856Z,16.73
2023-07-01T03:37:45.845Z,16.74
2023-07-01T03:38:45.824Z,16.75
2023-07-01T03:39:45.819Z,16.76
2023-07-01T03:40:46.049Z,16.77
2023-07-01T03:41:45.837Z,16.79
2023-07-01T03:42:45.854Z,16.80
2023-07-01T03:43:45.774Z,16.80
2023-07-01T03:44:45.786Z,16.80
2023-07-01T03:45:45.822Z,16.80
2023-07-01T03:46:45.734Z,16.82
2023-07-01T03:47:45.943Z,16.84
2023-07-01T03:48:45.720Z,16.86
2023-07-01T03:49:45.728Z,16.87
2023-07-01T03:50:46.052Z,16.88
2023-07-01T03:51:45.718Z,16.89
2023-07-01T03:52:45.685Z,16.91
2023-07-01T03:53:45.664Z,16.92
2023-07-01T03:54:45.651Z,16.93
2023-07-01T03:55:45.686Z,16.93
2023-07-01T03:56:45.661Z,16.94
2023-07-01T03:57:45.629Z,16.96
2023-07-01T03:58:45.603Z,16.97
2023-07-01T03:59:45.608Z,16.97
2023-07-01T04:00:45.895Z,16.97
2023-07-01T04:01:45.616Z,16.98
2023-07-01T04:02:45.601Z,16.99
2023-07-01T04:03:45.641Z,16.99
2023-07-01T04:04:45.621Z,17.00
2023-07-01T04:05:45.565Z,17.01
2023-07-01T04:06:45.536Z,17.02
2023-07-01T04:07:45.533Z,17.03
2023-07-01T04:08:45.507Z,17.04
2023-07-01T04:09:45.488Z,17.04
2023-07-01T04:10:45.896Z,17.04
2023-07-01T04:11:45.525Z,17.05
2023-07-01T04:12:45.473Z,17.06
2023-07-01T04:13:45.489Z,17.07
2023-07-01T04:14:45.441Z,17.07
2023-07-01T04:15:45.428Z,17.08
2023-07-01T04:16:45.521Z,17.10
2023-07-01T04:17:45.451Z,17.11
2023-07-01T04:18:45.405Z,17.11
2023-07-01T04:19:45.411Z,17.11
2023-07-01T04:20:45.764Z,17.12
2023-07-01T04:21:45.364Z,17.13
2023-07-01T04:22:45.361Z,17.14
2023-07-01T04:23:45.376Z,17.16
2023-07-01T04:24:45.373Z,17.17
2023-07-01T04:25:45.322Z,17.17
2023-07-01T04:26:45.319Z,17.18
2023-07-01T04:27:45.309Z,17.18
2023-07-01T04:28:45.302Z,17.19
2023-07-01T04:29:45.281Z,17.19
2023-07-01T04:30:45.748Z,17.20
2023-07-01T04:31:45.266Z,17.21
2023-07-01T04:32:45.282Z,17.21
2023-07-01T04:33:45.245Z,17.22
2023-07-01T04:34:45.231Z,17.23
2023-07-01T04:35:45.224Z,17.23
2023-07-01T04:36:45.227Z,17.23
2023-07-01T04:37:45.229Z,17.23
2023-07-01T04:38:45.187Z,17.24
2023-07-01T04:39:45.179Z,17.24
2023-07-01T04:40:45.318Z,17.25
2023-07-01T04:41:45.168Z,17.26
2023-07-01T04:42:45.157Z,17.27
2023-07-01T04:43:45.136Z,17.27
2023-07-01T04:44:45.121Z,17.27
2023-07-01T04:45:45.128Z,17.28
2023-07-01T04:46:45.153Z,17.28
2023-07-01T04:47:45.241Z,17.28
2023-07-01T04:48:45.085Z,17.29
2023-07-01T04:49:45.069Z,17.30
2023-07-01T04:50:45.443Z,17.31
2023-07-01T04:51:45.072Z,17.32
2023-07-01T04:52:45.351Z,17.33
2023-07-01T04:53:45.024Z,17.33
2023-07-01T04:54:45.023Z,17.34
2023-07-01T04:55:45.023Z,17.35
2023-07-01T04:56:44.993Z,17.35
2023-07-01T04:57:45.017Z,17.36
2023-07-01T04:58:44.992Z,17.37
2023-07-01T04:59:44.973Z,17.38
2023-07-01T05:00:45.244Z,17.39
2023-07-01T05:01:45.019Z,17.40
2023-07-01T05:02:45.106Z,17.42
2023-07-01T05:03:44.979Z,17.44
2023-07-01T05:04:44.998Z,17.45
2023-07-01T05:05:44.899Z,17.46
2023-07-01T05:06:44.888Z,17.48
2023-07-01T05:07:44.925Z,17.49
2023-07-01T05:08:44.896Z,17.50
2023-07-01T05:09:44.865Z,17.51
2023-07-01T05:10:45.185Z,17.52
2023-07-01T05:11:44.842Z,17.53
2023-07-01T05:12:44.830Z,17.55
2023-07-01T05:13:44.822Z,17.56
2023-07-01T05:14:44.827Z,17.57
2023-07-01T05:15:44.829Z,17.58
2023-07-01T05:16:44.806Z,17.59
2023-07-01T05:17:44.814Z,17.62
2023-07-01T05:18:44.762Z,17.64
2023-07-01T05:19:44.749Z,17.68
2023-07-01T05:20:45.681Z,17.75
2023-07-01T05:21:44.766Z,17.83
2023-07-01T05:22:44.724Z,17.91
2023-07-01T05:23:44.708Z,17.99
2023-07-01T05:24:44.693Z,18.08
2023-07-01T05:25:44.680Z,18.14
2023-07-01T05:26:44.675Z,18.19
2023-07-01T05:27:44.692Z,18.24
2023-07-01T05:28:44.657Z,18.27
2023-07-01T05:29:44.656Z,18.30
2023-07-01T05:30:44.890Z,18.34
2023-07-01T05:31:44.625Z,18.37
2023-07-01T05:32:44.697Z,18.39
2023-07-01T05:33:44.593Z,18.39
2023-07-01T05:34:44.593Z,18.38
2023-07-01T05:35:44.579Z,18.38
2023-07-01T05:36:44.573Z,18.38
2023-07-01T05:37:44.562Z,18.37
2023-07-01T05:38:44.581Z,18.36
2023-07-01T05:39:44.536Z,18.38
2023-07-01T05:40:44.918Z,18.41
2023-07-01T05:41:44.528Z,18.41
2023-07-01T05:42:44.508Z,18.41
2023-07-01T05:43:44.536Z,18.41
2023-07-01T05:44:44.493Z,18.42
2023-07-01T05:45:44.474Z,18.41
2023-07-01T05:46:44.522Z,18.42
2023-07-01T05:47:44.490Z,18.45
2023-07-01T05:48:44.456Z,18.49
2023-07-01T05:49:44.466Z,18.52
2023-07-01T05:50:44.789Z,18.52
2023-07-01T05:51:44.415Z,18.51
2023-07-01T05:52:45.380Z,18.51
2023-07-01T05:53:44.443Z,18.51
2023-07-01T05:54:44.374Z,18.53
2023-07-01T05:55:44.368Z,18.54
2023-07-01T05:56:44.385Z,18.53
2023-07-01T05:57:44.363Z,18.52
2023-07-01T05:58:44.351Z,18.52
2023-07-01T05:59:44.354Z,18.51
2023-07-01T06:00:44.568Z,18.51
2023-07-01T06:01:44.340Z,18.50
2023-07-01T06:02:44.320Z,18.49
2023-07-01T06:03:44.331Z,18.48
2023-07-01T06:04:44.313Z,18.48
2023-07-01T06:05:44.284Z,18.47
2023-07-01T06:06:44.253Z,18.46
2023-07-01T06:07:44.237Z,18.46
2023-07-01T06:08:44.243Z,18.45
2023-07-01T06:09:44.224Z,18.47
2023-07-01T06:10:44.370Z,18.49
2023-07-01T06:11:44.201Z,18.51
2023-07-01T06:12:44.199Z,18.48
2023-07-01T06:13:44.205Z,18.44
2023-07-01T06:14:44.171Z,18.40
2023-07-01T06:15:44.175Z,18.38
2023-07-01T06:16:44.162Z,18.37
2023-07-01T06:17:44.267Z,18.36
2023-07-01T06:18:44.161Z,18.35
2023-07-01T06:19:44.122Z,18.33
2023-07-01T06:20:45.102Z,18.34
2023-07-01T06:21:44.117Z,18.35
2023-07-01T06:22:44.088Z,18.36
2023-07-01T06:23:44.079Z,18.36
2023-07-01T06:24:44.066Z,18.35
2023-07-01T06:25:44.063Z,18.34
2023-07-01T06:26:44.045Z,18.35
2023-07-01T06:27:44.052Z,18.37
2023-07-01T06:28:44.048Z,18.38
2023-07-01T06:29:44.039Z,18.40
2023-07-01T06:30:44.186Z,18.43
2023-07-01T06:31:44.127Z,18.45
2023-07-01T06:32:44.131Z,18.47
2023-07-01T06:33:44.008Z,18.47
2023-07-01T06:34:43.967Z,18.46
2023-07-01T06:35:43.949Z,18.45
2023-07-01T06:36:43.980Z,18.44
2023-07-01T06:37:43.936Z,18.44
2023-07-01T06:38:43.934Z,18.44
2023-07-01T06:39:43.915Z,18.43
2023-07-01T06:40:44.064Z,18.41
2023-07-01T06:41:43.881Z,18.40
2023-07-01T06:42:43.869Z,18.42
2023-07-01T06:43:43.862Z,18.43
2023-07-01T06:44:43.888Z,18.43
2023-07-01T06:45:43.897Z,18.42
2023-07-01T06:46:43.867Z,18.44
2023-07-01T06:47:43.869Z,18.45
2023-07-01T06:48:43.811Z,18.46
2023-07-01T06:49:43.790Z,18.46
2023-07-01T06:50:43.812Z,18.47
2023-07-01T06:51:43.792Z,18.46
2023-07-01T06:52:43.788Z,18.45
2023-07-01T06:53:43.769Z,18.46
2023-07-01T06:54:43.739Z,18.46
2023-07-01T06:55:43.753Z,18.47
2023-07-01T06:56:43.729Z,18.48
2023-07-01T06:57:43.720Z,18.47
2023-07-01T06:58:43.711Z,18.48
2023-07-01T06:59:43.717Z,18.49
2023-07-01T07:00:43.708Z,18.51
2023-07-01T07:01:43.846Z,18.52
2023-07-01T07:02:43.699Z,18.55
2023-07-01T07:03:43.712Z,18.54
2023-07-01T07:04:43.731Z,18.48
2023-07-01T07:05:43.711Z,18.44
2023-07-01T07:06:43.628Z,18.42
2023-07-01T07:07:43.619Z,18.37
2023-07-01T07:08:43.633Z,18.35
2023-07-01T07:09:43.587Z,18.34
2023-07-01T07:10:43.664Z,18.34
2023-07-01T07:11:43.556Z,18.33
2023-07-01T07:12:43.567Z,18.31
2023-07-01T07:13:43.544Z,18.30
2023-07-01T07:14:43.546Z,18.27
2023-07-01T07:15:43.692Z,18.22
2023-07-01T07:16:43.567Z,18.16
2023-07-01T07:17:43.585Z,18.13
2023-07-01T07:18:43.656Z,18.11
2023-07-01T07:19:43.460Z,18.09
2023-07-01T07:20:43.645Z,18.08
2023-07-01T07:21:43.467Z,18.07
2023-07-01T07:22:43.454Z,18.08
2023-07-01T07:23:43.436Z,18.07
2023-07-01T07:24:43.421Z,18.07
2023-07-01T07:25:43.401Z,18.08
2023-07-01T07:26:43.495Z,18.09
2023-07-01T07:27:43.381Z,18.09
2023-07-01T07:28:43.384Z,18.08
2023-07-01T07:29:43.390Z,18.08
2023-07-01T07:30:43.380Z,18.06
2023-07-01T07:31:43.422Z,18.04
2023-07-01T07:32:43.424Z,18.02
2023-07-01T07:33:43.334Z,18.01
2023-07-01T07:34:43.325Z,18.03
2023-07-01T07:35:43.302Z,18.05
2023-07-01T07:36:43.282Z,18.06
2023-07-01T07:37:43.263Z,18.06
2023-07-01T07:38:43.299Z,18.04
2023-07-01T07:39:43.265Z,17.97
2023-07-01T07:40:43.274Z,17.89
2023-07-01T07:41:43.248Z,17.85
2023-07-01T07:42:43.259Z,17.82
2023-07-01T07:43:43.228Z,17.80
2023-07-01T07:44:43.206Z,17.78
2023-07-01T07:45:43.205Z,17.77
2023-07-01T07:46:43.228Z,17.77
2023-07-01T07:47:43.196Z,17.78
2023-07-01T07:48:43.191Z,17.79
2023-07-01T07:49:43.171Z,17.79
2023-07-01T07:50:43.151Z,17.81
2023-07-01T07:51:43.154Z,17.83
2023-07-01T07:52:43.180Z,17.85
2023-07-01T07:53:43.118Z,17.86
2023-07-01T07:54:43.119Z,17.84
2023-07-01T07:55:43.101Z,17.82
2023-07-01T07:56:43.074Z,17.82
2023-07-01T07:57:43.070Z,17.83
2023-07-01T07:58:43.094Z,17.83
2023-07-01T07:59:43.080Z,17.81
2023-07-01T08:00:43.043Z,17.79
2023-07-01T08:01:43.088Z,17.76
2023-07-01T08:02:43.008Z,17.75
2023-07-01T08:03:43.129Z,17.76
2023-07-01T08:04:43.108Z,17.72
2023-07-01T08:05:43.014Z,17.68
2023-07-01T08:06:42.978Z,17.70
2023-07-01T08:07:42.959Z,17.73
2023-07-01T08:08:42.960Z,17.75
2023-07-01T08:09:42.964Z,17.74
2023-07-01T08:10:42.925Z,17.69
2023-07-01T08:11:42.963Z,17.65
2023-07-01T08:12:42.929Z,17.64
2023-07-01T08:13:42.890Z,17.61
2023-07-01T08:14:42.881Z,17.53
2023-07-01T08:15:42.869Z,17.46
2023-07-01T08:16:43.004Z,17.43
2023-07-01T08:17:42.945Z,17.43
2023-07-01T08:18:42.881Z,17.40
2023-07-01T08:19:42.840Z,17.36
2023-07-01T08:20:42.818Z,17.36
2023-07-01T08:21:42.803Z,17.38
2023-07-01T08:22:42.803Z,17.41
2023-07-01T08:23:42.841Z,17.45
2023-07-01T08:24:42.811Z,17.51
2023-07-01T08:25:42.776Z,17.56
2023-07-01T08:26:42.761Z,17.60
2023-07-01T08:27:42.751Z,17.58
2023-07-01T08:28:42.728Z,17.57
2023-07-01T08:29:42.763Z,17.59
2023-07-01T08:30:42.762Z,17.61
2023-07-01T08:31:42.729Z,17.58
2023-07-01T08:32:42.830Z,17.56
2023-07-01T08:33:42.696Z,17.53
2023-07-01T08:34:42.688Z,17.49
2023-07-01T08:35:42.671Z,17.46
2023-07-01T08:36:42.674Z,17.45
2023-07-01T08:37:42.657Z,17.44
2023-07-01T08:38:42.650Z,17.39
2023-07-01T08:39:42.635Z,17.37
2023-07-01T08:40:42.648Z,17.37
2023-07-01T08:41:42.624Z,17.36
2023-07-01T08:42:42.587Z,17.37
2023-07-01T08:43:42.577Z,17.38
2023-07-01T08:44:42.571Z,17.36
2023-07-01T08:45:42.558Z,17.35
2023-07-01T08:46:42.645Z,17.39
2023-07-01T08:47:42.644Z,17.46
2023-07-01T08:48:42.558Z,17.53
2023-07-01T08:49:42.516Z,17.59
2023-07-01T08:50:42.512Z,17.61
2023-07-01T08:51:42.563Z,17.59
2023-07-01T08:52:42.517Z,17.60
2023-07-01T08:53:42.484Z,17.64
2023-07-01T08:54:42.470Z,17.64
2023-07-01T08:55:42.468Z,17.63
2023-07-01T08:56:42.457Z,17.62
2023-07-01T08:57:42.443Z,17.64
2023-07-01T08:58:42.460Z,17.67
2023-07-01T08:59:42.452Z,17.68
2023-07-01T09:00:42.412Z,17.69
2023-07-01T09:01:42.495Z,17.71
2023-07-01T09:02:42.532Z,17.71
2023-07-01T09:03:42.451Z,17.74
2023-07-01T09:04:42.387Z,17.74
2023-07-01T09:05:42.375Z,17.71
2023-07-01T09:06:42.468Z,17.68
2023-07-01T09:07:42.337Z,17.65
2023-07-01T09:08:42.370Z,17.63
2023-07-01T09:09:42.321Z,17.64
2023-07-01T09:10:42.312Z,17.65
2023-07-01T09:11:42.291Z,17.65
2023-07-01T09:12:42.302Z,17.63
2023-07-01T09:13:42.289Z,17.56
2023-07-01T09:14:42.255Z,17.47
2023-07-01T09:15:42.246Z,17.39
2023-07-01T09:16:42.392Z,17.34
2023-07-01T09:17:42.286Z,17.30
2023-07-01T09:18:42.320Z,17.29
2023-07-01T09:19:42.295Z,17.32
2023-07-01T09:20:42.196Z,17.39
2023-07-01T09:21:42.175Z,17.45
2023-07-01T09:22:42.179Z,17.48
2023-07-01T09:23:42.159Z,17.47
2023-07-01T09:24:42.172Z,17.46
2023-07-01T09:25:42.141Z,17.47
2023-07-01T09:26:42.146Z,17.48
2023-07-01T09:27:42.153Z,17.45
2023-07-01T09:28:42.111Z,17.37
2023-07-01T09:29:42.112Z,17.30
2023-07-01T09:30:42.100Z,17.27
2023-07-01T09:31:42.126Z,17.26
2023-07-01T09:32:42.109Z,17.25
2023-07-01T09:33:42.090Z,17.22
2023-07-01T09:34:42.057Z,17.20
2023-07-01T09:35:42.072Z,17.16
2023-07-01T09:36:42.025Z,17.13
2023-07-01T09:37:42.030Z,17.10
2023-07-01T09:38:42.021Z,17.07
2023-07-01T09:39:41.990Z,17.08
2023-07-01T09:40:42.054Z,17.10
2023-07-01T09:41:42.010Z,17.13
2023-07-01T09:42:41.976Z,17.17
2023-07-01T09:43:41.951Z,17.20
2023-07-01T09:44:41.938Z,17.19
2023-07-01T09:45:41.940Z,17.17
2023-07-01T09:46:41.912Z,17.15
2023-07-01T09:47:41.975Z,17.14
2023-07-01T09:48:41.905Z,17.18
2023-07-01T09:49:41.894Z,17.20
2023-07-01T09:50:42.122Z,17.19
2023-07-01T09:51:41.861Z,17.16
2023-07-01T09:52:41.862Z,17.15
2023-07-01T09:53:41.848Z,17.17
2023-07-01T09:54:41.824Z,17.20
2023-07-01T09:55:41.812Z,17.23
2023-07-01T09:56:41.838Z,17.23
2023-07-01T09:57:41.813Z,17.22
2023-07-01T09:58:41.780Z,17.23
2023-07-01T09:59:41.814Z,17.25
2023-07-01T10:00:41.763Z,17.28
2023-07-01T10:01:41.799Z,17.31
2023-07-01T10:02:42.088Z,17.32
2023-07-01T10:03:41.797Z,17.34
2023-07-01T10:04:41.792Z,17.33
2023-07-01T10:05:41.760Z,17.31
2023-07-01T10:06:41.709Z,17.30
2023-07-01T10:07:41.695Z,17.31
2023-07-01T10:08:41.678Z,17.35
2023-07-01T10:09:41.680Z,17.40
2023-07-01T10:10:41.718Z,17.42
2023-07-01T10:11:41.649Z,17.41
2023-07-01T10:12:41.656Z,17.40
2023-07-01T10:13:41.643Z,17.42
2023-07-01T10:14:41.612Z,17.44
2023-07-01T10:15:41.636Z,17.46
2023-07-01T10:16:41.621Z,17.47
2023-07-01T10:17:41.642Z,17.49
2023-07-01T10:18:41.602Z,17.49
2023-07-01T10:19:41.561Z,17.47
2023-07-01T10:20:41.559Z,17.43
2023-07-01T10:21:41.538Z,17.34
2023-07-01T10:22:41.532Z,17.25
2023-07-01T10:23:41.541Z,17.16
2023-07-01T10:24:41.528Z,17.12
2023-07-01T10:25:41.567Z,17.12
2023-07-01T10:26:41.516Z,17.13
2023-07-01T10:27:41.492Z,17.12
2023-07-01T10:28:41.557Z,17.12
2023-07-01T10:29:41.472Z,17.15
2023-07-01T10:30:41.478Z,17.20
2023-07-01T10:31:41.426Z,17.26
2023-07-01T10:32:41.530Z,17.32
2023-07-01T10:33:41.452Z,17.34
2023-07-01T10:34:41.421Z,17.34
2023-07-01T10:35:41.428Z,17.30
2023-07-01T10:36:41.413Z,17.25
2023-07-01T10:37:41.375Z,17.23
2023-07-01T10:38:41.372Z,17.23
2023-07-01T10:39:41.376Z,17.25
2023-07-01T10:40:41.364Z,17.32
2023-07-01T10:41:41.324Z,17.38
2023-07-01T10:42:41.362Z,17.41
2023-07-01T10:43:41.311Z,17.45
2023-07-01T10:44:41.289Z,17.43
2023-07-01T10:45:41.333Z,17.38
2023-07-01T10:46:41.341Z,17.36
2023-07-01T10:47:41.314Z,17.35
2023-07-01T10:48:41.258Z,17.35
2023-07-01T10:49:41.258Z,17.35
2023-07-01T10:50:41.233Z,17.35
2023-07-01T10:51:41.257Z,17.36
2023-07-01T10:52:41.216Z,17.40
2023-07-01T10:53:41.222Z,17.44
2023-07-01T10:54:41.198Z,17.46
2023-07-01T10:55:41.284Z,17.48
2023-07-01T10:56:41.257Z,17.51
2023-07-01T10:57:41.167Z,17.52
2023-07-01T10:58:41.153Z,17.53
2023-07-01T10:59:41.232Z,17.53
2023-07-01T11:00:41.157Z,17.54
2023-07-01T11:01:41.234Z,17.54
2023-07-01T11:02:41.308Z,17.55
2023-07-01T11:03:41.191Z,17.56
2023-07-01T11:04:41.109Z,17.55
2023-07-01T11:05:41.184Z,17.52
2023-07-01T11:06:41.065Z,17.49
2023-07-01T11:07:41.063Z,17.44
2023-07-01T11:08:41.039Z,17.39
2023-07-01T11:09:41.057Z,17.37
2023-07-01T11:10:41.041Z,17.34
2023-07-01T11:11:41.002Z,17.25
2023-07-01T11:12:41.093Z,17.16
2023-07-01T11:13:41.038Z,17.12
2023-07-01T11:14:41.034Z,17.11
2023-07-01T11:15:41.070Z,17.11
2023-07-01T11:16:41.035Z,17.05
2023-07-01T11:17:40.996Z,16.98
2023-07-01T11:18:40.939Z,16.95
2023-07-01T11:19:40.918Z,16.94
2023-07-01T11:20:40.961Z,16.96
2023-07-01T11:21:41.026Z,16.99
2023-07-01T11:22:40.919Z,17.01
2023-07-01T11:23:41.143Z,17.00
2023-07-01T11:24:40.867Z,16.98
2023-07-01T11:25:40.878Z,17.00
2023-07-01T11:26:40.971Z,17.05
2023-07-01T11:27:40.869Z,17.04
2023-07-01T11:28:40.822Z,17.00
2023-07-01T11:29:40.820Z,16.99
2023-07-01T11:30:40.812Z,17.01
2023-07-01T11:31:40.885Z,17.05
2023-07-01T11:32:40.836Z,17.05
2023-07-01T11:33:40.794Z,16.99
2023-07-01T11:34:40.758Z,16.96
2023-07-01T11:35:40.742Z,16.97
2023-07-01T11:36:40.737Z,17.00
2023-07-01T11:37:40.756Z,17.06
2023-07-01T11:38:40.706Z,17.13
2023-07-01T11:39:40.712Z,17.21
2023-07-01T11:40:40.713Z,17.27
2023-07-01T11:41:40.679Z,17.30
2023-07-01T11:42:40.686Z,17.33
2023-07-01T11:43:40.663Z,17.33
2023-07-01T11:44:40.688Z,17.33
2023-07-01T11:45:40.676Z,17.29
2023-07-01T11:46:40.666Z,17.20
2023-07-01T11:47:40.686Z,17.15
2023-07-01T11:48:40.599Z,17.14
2023-07-01T11:49:40.587Z,17.13
2023-07-01T11:50:40.604Z,17.15
2023-07-01T11:51:40.570Z,17.22
2023-07-01T11:52:40.638Z,17.31
2023-07-01T11:53:40.548Z,17.40
2023-07-01T11:54:40.685Z,17.45
2023-07-01T11:55:40.542Z,17.47
2023-07-01T11:56:40.520Z,17.49
2023-07-01T11:57:40.504Z,17.49
2023-07-01T11:58:49.544Z,17.44
2023-07-01T11:59:40.484Z,17.40
2023-07-01T12:00:40.526Z,17.40
2023-07-01T12:01:40.549Z,17.40
2023-07-01T12:02:40.547Z,17.37
2023-07-01T12:03:40.482Z,17.32
2023-07-01T12:04:40.603Z,17.31
2023-07-01T12:05:40.483Z,17.35
2023-07-01T12:06:40.415Z,17.42
2023-07-01T12:07:40.429Z,17.48
2023-07-01T12:08:40.375Z,17.54
2023-07-01T12:09:40.376Z,17.62
2023-07-01T12:10:40.363Z,17.69
2023-07-01T12:11:40.357Z,17.74
2023-07-01T12:12:40.369Z,17.77
2023-07-01T12:13:40.380Z,17.78
2023-07-01T12:14:40.333Z,17.78
2023-07-01T12:15:40.343Z,17.79
2023-07-01T12:16:40.305Z,17.75
2023-07-01T12:17:40.375Z,17.72
2023-07-01T12:18:40.303Z,17.69
2023-07-01T12:19:40.272Z,17.67
2023-07-01T12:20:40.265Z,17.65
2023-07-01T12:21:40.243Z,17.60
2023-07-01T12:22:40.252Z,17.56
2023-07-01T12:23:40.231Z,17.56
2023-07-01T12:24:40.267Z,17.54
2023-07-01T12:25:40.210Z,17.56
2023-07-01T12:26:40.191Z,17.59
2023-07-01T12:27:40.172Z,17.61
2023-07-01T12:28:40.174Z,17.63
2023-07-01T12:29:40.191Z,17.65
2023-07-01T12:30:40.163Z,17.67
2023-07-01T12:31:40.182Z,17.67
2023-07-01T12:32:40.170Z,17.68
2023-07-01T12:33:40.139Z,17.72
2023-07-01T12:34:40.109Z,17.76
2023-07-01T12:35:42.550Z,17.78
2023-07-01T12:36:40.085Z,17.79
2023-07-01T12:37:40.121Z,17.78
2023-07-01T12:38:40.091Z,17.75
2023-07-01T12:39:40.055Z,17.69
2023-07-01T12:40:40.082Z,17.63
2023-07-01T12:41:42.307Z,17.58
2023-07-01T12:42:40.090Z,17.54
2023-07-01T12:43:40.054Z,17.50
2023-07-01T12:44:40.002Z,17.48
2023-07-01T12:45:40.089Z,17.49
2023-07-01T12:46:40.009Z,17.52
2023-07-01T12:47:40.016Z,17.54
2023-07-01T12:48:39.959Z,17.55
2023-07-01T12:49:39.942Z,17.55
2023-07-01T12:50:39.935Z,17.56
2023-07-01T12:51:39.939Z,17.59
2023-07-01T12:52:39.957Z,17.60